Sunday, October 21, 2018, 4:41 PM GMT
Back to Local

CWBZ, St Anicet

Location: , , Canada Lat: 45.117
Local Time: 4:41 PM GMT (16:41 GMT) Lon: -74.283
Time Zone: GMT Elev: 160 ft

Show me the last for .
Show Coded

Time T Td Feel RH Dir Speed Gust Alt SLP Vis Weather Sky Remarks
2018-10-21 16:00 37 22 26 54 290° 13 22 - 29.97 0 Peak wind: 21 mph (19 kts) from 280° at 59 min
2018-10-21 15:00 37 22 27 55 290° 10 18 - 29.96 0 Peak wind: 20 mph (18 kts) from 320° at 32 min
2018-10-21 14:00 36 23 29 57 290° 10 - - 29.95 0 None
2018-10-21 13:00 35 25 25 64 280° 12 18 - 29.92 0 Peak wind: 20 mph (18 kts) from 280° at 03 min
2018-10-21 12:00 36 23 29 60 290° 9 - - 29.89 0 None
2018-10-21 11:00 35 25 25 65 280° 9 17 - 29.86 0 Peak wind: 20 mph (18 kts) from 280° at 45 min
2018-10-21 10:00 36 26 26 67 290° 10 17 - 29.83 0 None
2018-10-21 09:00 35 29 28 79 280° 9 - - 29.81 0 None
2018-10-21 08:00 35 27 24 74 300° 9 18 - 29.78 0 None
2018-10-21 07:00 36 29 30 75 280° 7 - - 29.76 0 None
2018-10-21 06:00 37 29 33 70 280° 6 - - 29.74 0 None
2018-10-21 05:00 37 29 33 70 290° 6 - - 29.72 0 None
2018-10-21 04:00 40 30 35 67 330° 7 - - 29.70 0 None
2018-10-21 03:00 42 31 37 64 300° 8 - - 29.68 0 None
2018-10-21 02:00 42 33 38 68 310° 7 - - 29.64 0 None
2018-10-21 01:00 45 31 41 56 310° 7 - - 29.61 0 None
2018-10-21 00:00 47 31 44 52 290° 6 - - 29.59 0 None
2018-10-20 23:00 48 31 47 52 290° 3 - - 29.57 0 None
2018-10-20 22:00 49 32 46 51 310° 7 - - 29.55 0 None
2018-10-20 21:00 52 36 - 53 300° 8 - - 29.52 0 Peak wind: 19 mph (17 kts) from 310° at 10 min
2018-10-20 20:00 55 36 - 48 290° 12 18 - 29.50 0 Peak wind: 20 mph (18 kts) from 310° at 18 min
2018-10-20 19:00 55 35 - 48 280° 14 26 - 29.49 0 Peak wind: 28 mph (25 kts) from 260° at 05 min
2018-10-20 18:00 57 34 - 42 250° 17 28 - 29.49 0 Peak wind: 31 mph (27 kts) from 240° at 06 min
2018-10-20 17:00 58 38 - 48 250° 20 29 - 29.49 0 Peak wind: 34 mph (30 kts) from 260° at 49 min

Support USWX by starting your Amazon purchase here.